sensor_id;sensor_type;location;lat;lon;timestamp;temperature;humidity
69543;SHT31;56762;49.494;11.768;2022-09-09T00:00:13;13.63;85.02
69543;SHT31;56762;49.494;11.768;2022-09-09T00:02:46;13.54;85.69
69543;SHT31;56762;49.494;11.768;2022-09-09T00:05:20;13.57;85.32
69543;SHT31;56762;49.494;11.768;2022-09-09T00:07:55;13.53;85.64
69543;SHT31;56762;49.494;11.768;2022-09-09T00:10:29;13.54;85.38
69543;SHT31;56762;49.494;11.768;2022-09-09T00:13:02;13.51;85.67
69543;SHT31;56762;49.494;11.768;2022-09-09T00:15:38;13.53;85.82
69543;SHT31;56762;49.494;11.768;2022-09-09T00:18:16;13.54;85.77
69543;SHT31;56762;49.494;11.768;2022-09-09T00:20:49;13.56;85.71
69543;SHT31;56762;49.494;11.768;2022-09-09T00:23:24;13.56;85.89
69543;SHT31;56762;49.494;11.768;2022-09-09T00:25:59;13.54;85.40
69543;SHT31;56762;49.494;11.768;2022-09-09T00:28:31;13.49;85.43
69543;SHT31;56762;49.494;11.768;2022-09-09T00:31:11;13.47;85.44
69543;SHT31;56762;49.494;11.768;2022-09-09T00:33:39;13.44;85.46
69543;SHT31;56762;49.494;11.768;2022-09-09T00:36:13;13.42;85.42
69543;SHT31;56762;49.494;11.768;2022-09-09T00:38:46;13.39;85.31
69543;SHT31;56762;49.494;11.768;2022-09-09T00:41:20;13.30;85.19
69543;SHT31;56762;49.494;11.768;2022-09-09T00:43:56;13.33;85.54
69543;SHT31;56762;49.494;11.768;2022-09-09T00:46:39;13.33;85.70
69543;SHT31;56762;49.494;11.768;2022-09-09T00:49:19;13.35;85.96
69543;SHT31;56762;49.494;11.768;2022-09-09T00:51:58;13.39;85.99
69543;SHT31;56762;49.494;11.768;2022-09-09T00:54:47;13.39;85.85
69543;SHT31;56762;49.494;11.768;2022-09-09T00:57:25;13.42;84.84
69543;SHT31;56762;49.494;11.768;2022-09-09T01:00:15;13.36;85.14
69543;SHT31;56762;49.494;11.768;2022-09-09T01:02:51;13.37;85.00
69543;SHT31;56762;49.494;11.768;2022-09-09T01:05:29;13.33;84.85
69543;SHT31;56762;49.494;11.768;2022-09-09T01:08:01;13.27;84.75
69543;SHT31;56762;49.494;11.768;2022-09-09T01:10:37;13.24;85.26
69543;SHT31;56762;49.494;11.768;2022-09-09T01:13:15;13.20;84.60
69543;SHT31;56762;49.494;11.768;2022-09-09T01:15:46;13.20;84.75
69543;SHT31;56762;49.494;11.768;2022-09-09T01:18:16;13.19;84.77
69543;SHT31;56762;49.494;11.768;2022-09-09T01:20:51;13.19;85.09
69543;SHT31;56762;49.494;11.768;2022-09-09T01:23:57;13.20;85.04
69543;SHT31;56762;49.494;11.768;2022-09-09T01:26:35;13.19;85.13
69543;SHT31;56762;49.494;11.768;2022-09-09T01:29:07;13.18;85.16
69543;SHT31;56762;49.494;11.768;2022-09-09T01:31:38;13.16;84.89
69543;SHT31;56762;49.494;11.768;2022-09-09T01:34:11;13.10;85.35
69543;SHT31;56762;49.494;11.768;2022-09-09T01:36:43;13.12;84.88
69543;SHT31;56762;49.494;11.768;2022-09-09T01:39:12;13.12;85.06
69543;SHT31;56762;49.494;11.768;2022-09-09T01:41:41;13.08;85.29
69543;SHT31;56762;49.494;11.768;2022-09-09T01:44:09;13.05;85.21
69543;SHT31;56762;49.494;11.768;2022-09-09T01:46:38;13.02;85.69
69543;SHT31;56762;49.494;11.768;2022-09-09T01:49:07;13.03;85.37
69543;SHT31;56762;49.494;11.768;2022-09-09T01:51:36;13.03;85.49
69543;SHT31;56762;49.494;11.768;2022-09-09T01:54:05;13.03;85.57
69543;SHT31;56762;49.494;11.768;2022-09-09T01:56:43;13.02;85.77
69543;SHT31;56762;49.494;11.768;2022-09-09T02:02:18;13.03;85.81
69543;SHT31;56762;49.494;11.768;2022-09-09T02:04:48;13.05;85.68
69543;SHT31;56762;49.494;11.768;2022-09-09T02:07:28;13.09;85.62
69543;SHT31;56762;49.494;11.768;2022-09-09T02:10:02;13.08;85.95
69543;SHT31;56762;49.494;11.768;2022-09-09T02:12:35;13.10;86.10
69543;SHT31;56762;49.494;11.768;2022-09-09T02:15:09;13.12;86.47
69543;SHT31;56762;49.494;11.768;2022-09-09T02:17:41;13.12;86.13
69543;SHT31;56762;49.494;11.768;2022-09-09T02:20:12;13.15;86.51
69543;SHT31;56762;49.494;11.768;2022-09-09T02:22:43;13.15;86.70
69543;SHT31;56762;49.494;11.768;2022-09-09T02:25:14;13.18;86.84
69543;SHT31;56762;49.494;11.768;2022-09-09T02:27:45;13.18;86.07
69543;SHT31;56762;49.494;11.768;2022-09-09T02:30:15;13.16;86.26
69543;SHT31;56762;49.494;11.768;2022-09-09T02:32:45;13.20;86.41
69543;SHT31;56762;49.494;11.768;2022-09-09T02:35:15;13.19;86.05
69543;SHT31;56762;49.494;11.768;2022-09-09T02:37:45;13.22;86.06
69543;SHT31;56762;49.494;11.768;2022-09-09T02:40:15;13.22;86.01
69543;SHT31;56762;49.494;11.768;2022-09-09T02:42:47;13.19;86.03
69543;SHT31;56762;49.494;11.768;2022-09-09T02:45:19;13.18;86.57
69543;SHT31;56762;49.494;11.768;2022-09-09T02:47:51;13.19;86.27
69543;SHT31;56762;49.494;11.768;2022-09-09T02:50:25;13.19;85.61
69543;SHT31;56762;49.494;11.768;2022-09-09T02:53:08;13.18;85.52
69543;SHT31;56762;49.494;11.768;2022-09-09T02:55:40;13.16;85.77
69543;SHT31;56762;49.494;11.768;2022-09-09T02:58:12;13.16;86.10
69543;SHT31;56762;49.494;11.768;2022-09-09T03:00:45;13.13;85.83
69543;SHT31;56762;49.494;11.768;2022-09-09T03:03:13;13.12;85.09
69543;SHT31;56762;49.494;11.768;2022-09-09T03:05:42;13.10;85.56
69543;SHT31;56762;49.494;11.768;2022-09-09T03:08:10;13.13;85.39
69543;SHT31;56762;49.494;11.768;2022-09-09T03:10:39;13.12;85.45
69543;SHT31;56762;49.494;11.768;2022-09-09T03:13:07;13.12;84.84
69543;SHT31;56762;49.494;11.768;2022-09-09T03:15:37;13.13;85.67
69543;SHT31;56762;49.494;11.768;2022-09-09T03:18:04;13.13;85.14
69543;SHT31;56762;49.494;11.768;2022-09-09T03:20:32;13.09;85.73
69543;SHT31;56762;49.494;11.768;2022-09-09T03:23:00;13.10;85.73
69543;SHT31;56762;49.494;11.768;2022-09-09T03:25:29;13.12;85.72
69543;SHT31;56762;49.494;11.768;2022-09-09T03:27:57;13.09;85.77
69543;SHT31;56762;49.494;11.768;2022-09-09T03:30:26;13.08;86.74
69543;SHT31;56762;49.494;11.768;2022-09-09T03:32:56;13.19;87.28
69543;SHT31;56762;49.494;11.768;2022-09-09T03:35:24;13.20;87.92
69543;SHT31;56762;49.494;11.768;2022-09-09T03:37:52;13.24;88.59
69543;SHT31;56762;49.494;11.768;2022-09-09T03:40:21;13.35;88.87
69543;SHT31;56762;49.494;11.768;2022-09-09T03:42:49;13.40;89.07
69543;SHT31;56762;49.494;11.768;2022-09-09T03:45:17;13.51;89.11
69543;SHT31;56762;49.494;11.768;2022-09-09T03:47:45;13.57;88.90
69543;SHT31;56762;49.494;11.768;2022-09-09T03:50:15;13.60;88.70
69543;SHT31;56762;49.494;11.768;2022-09-09T03:52:44;13.64;88.54
69543;SHT31;56762;49.494;11.768;2022-09-09T03:55:13;13.68;88.49
69543;SHT31;56762;49.494;11.768;2022-09-09T03:57:41;13.71;88.73
69543;SHT31;56762;49.494;11.768;2022-09-09T04:00:09;13.77;88.98
69543;SHT31;56762;49.494;11.768;2022-09-09T04:02:37;13.78;89.15
69543;SHT31;56762;49.494;11.768;2022-09-09T04:05:06;13.82;89.30
69543;SHT31;56762;49.494;11.768;2022-09-09T04:07:35;13.88;89.26
69543;SHT31;56762;49.494;11.768;2022-09-09T04:10:04;13.88;89.00
69543;SHT31;56762;49.494;11.768;2022-09-09T04:12:32;13.94;89.32
69543;SHT31;56762;49.494;11.768;2022-09-09T04:15:01;13.98;89.44
69543;SHT31;56762;49.494;11.768;2022-09-09T04:17:29;14.01;89.49
69543;SHT31;56762;49.494;11.768;2022-09-09T04:19:57;14.07;89.37
69543;SHT31;56762;49.494;11.768;2022-09-09T04:22:25;14.08;89.25
69543;SHT31;56762;49.494;11.768;2022-09-09T04:24:54;14.11;89.35
69543;SHT31;56762;49.494;11.768;2022-09-09T04:27:21;14.14;89.34
69543;SHT31;56762;49.494;11.768;2022-09-09T04:29:49;14.17;89.37
69543;SHT31;56762;49.494;11.768;2022-09-09T04:32:17;14.17;89.25
69543;SHT31;56762;49.494;11.768;2022-09-09T04:34:45;14.19;89.50
69543;SHT31;56762;49.494;11.768;2022-09-09T04:37:14;14.21;89.53
69543;SHT31;56762;49.494;11.768;2022-09-09T04:39:41;14.22;89.47
69543;SHT31;56762;49.494;11.768;2022-09-09T04:42:11;14.25;89.31
69543;SHT31;56762;49.494;11.768;2022-09-09T04:44:41;14.29;89.44
69543;SHT31;56762;49.494;11.768;2022-09-09T04:47:09;14.29;89.46
69543;SHT31;56762;49.494;11.768;2022-09-09T04:49:37;14.32;89.39
69543;SHT31;56762;49.494;11.768;2022-09-09T04:52:05;14.35;89.16
69543;SHT31;56762;49.494;11.768;2022-09-09T04:54:33;14.33;89.35
69543;SHT31;56762;49.494;11.768;2022-09-09T04:57:01;14.35;89.25
69543;SHT31;56762;49.494;11.768;2022-09-09T04:59:30;14.38;89.09
69543;SHT31;56762;49.494;11.768;2022-09-09T05:01:58;14.36;88.70
69543;SHT31;56762;49.494;11.768;2022-09-09T05:04:27;14.39;88.73
69543;SHT31;56762;49.494;11.768;2022-09-09T05:06:55;14.38;88.62
69543;SHT31;56762;49.494;11.768;2022-09-09T05:09:24;14.39;88.77
69543;SHT31;56762;49.494;11.768;2022-09-09T05:11:52;14.36;88.83
69543;SHT31;56762;49.494;11.768;2022-09-09T05:14:19;14.40;88.54
69543;SHT31;56762;49.494;11.768;2022-09-09T05:16:48;14.40;88.52
69543;SHT31;56762;49.494;11.768;2022-09-09T05:19:17;14.40;88.76
69543;SHT31;56762;49.494;11.768;2022-09-09T05:21:46;14.43;88.83
69543;SHT31;56762;49.494;11.768;2022-09-09T05:24:14;14.45;88.82
69543;SHT31;56762;49.494;11.768;2022-09-09T05:26:41;14.46;88.71
69543;SHT31;56762;49.494;11.768;2022-09-09T05:29:09;14.50;88.61
69543;SHT31;56762;49.494;11.768;2022-09-09T05:31:37;14.50;88.88
69543;SHT31;56762;49.494;11.768;2022-09-09T05:34:06;14.53;88.83
69543;SHT31;56762;49.494;11.768;2022-09-09T05:36:35;14.53;88.82
69543;SHT31;56762;49.494;11.768;2022-09-09T05:39:03;14.60;88.83
69543;SHT31;56762;49.494;11.768;2022-09-09T05:41:30;14.59;88.91
69543;SHT31;56762;49.494;11.768;2022-09-09T05:43:59;14.60;88.69
69543;SHT31;56762;49.494;11.768;2022-09-09T05:46:27;14.69;88.82
69543;SHT31;56762;49.494;11.768;2022-09-09T05:48:55;14.72;88.63
69543;SHT31;56762;49.494;11.768;2022-09-09T05:51:26;14.79;88.91
69543;SHT31;56762;49.494;11.768;2022-09-09T05:53:54;14.84;88.47
69543;SHT31;56762;49.494;11.768;2022-09-09T05:56:26;14.87;88.51
69543;SHT31;56762;49.494;11.768;2022-09-09T05:58:55;14.91;88.30
69543;SHT31;56762;49.494;11.768;2022-09-09T06:01:24;14.97;88.42
69543;SHT31;56762;49.494;11.768;2022-09-09T06:03:53;15.04;88.38
69543;SHT31;56762;49.494;11.768;2022-09-09T06:06:24;15.12;88.25
69543;SHT31;56762;49.494;11.768;2022-09-09T06:08:54;15.20;87.94
69543;SHT31;56762;49.494;11.768;2022-09-09T06:11:24;15.26;87.63
69543;SHT31;56762;49.494;11.768;2022-09-09T06:13:52;15.30;87.55
69543;SHT31;56762;49.494;11.768;2022-09-09T06:16:22;15.35;87.20
69543;SHT31;56762;49.494;11.768;2022-09-09T06:18:51;15.35;87.18
69543;SHT31;56762;49.494;11.768;2022-09-09T06:21:20;15.35;87.03
69543;SHT31;56762;49.494;11.768;2022-09-09T06:23:51;15.35;87.08
69543;SHT31;56762;49.494;11.768;2022-09-09T06:26:27;15.37;86.87
69543;SHT31;56762;49.494;11.768;2022-09-09T06:28:55;15.41;86.55
69543;SHT31;56762;49.494;11.768;2022-09-09T06:31:25;15.38;86.74
69543;SHT31;56762;49.494;11.768;2022-09-09T06:33:56;15.37;86.70
69543;SHT31;56762;49.494;11.768;2022-09-09T06:36:26;15.37;86.80
69543;SHT31;56762;49.494;11.768;2022-09-09T06:38:55;15.37;86.83
69543;SHT31;56762;49.494;11.768;2022-09-09T06:41:25;15.37;87.01
69543;SHT31;56762;49.494;11.768;2022-09-09T06:43:53;15.38;87.24
69543;SHT31;56762;49.494;11.768;2022-09-09T06:46:23;15.38;86.95
69543;SHT31;56762;49.494;11.768;2022-09-09T06:48:54;15.45;86.99
69543;SHT31;56762;49.494;11.768;2022-09-09T06:51:25;15.48;86.92
69543;SHT31;56762;49.494;11.768;2022-09-09T06:53:55;15.49;86.90
69543;SHT31;56762;49.494;11.768;2022-09-09T06:56:25;15.55;86.98
69543;SHT31;56762;49.494;11.768;2022-09-09T06:58:55;15.65;86.87
69543;SHT31;56762;49.494;11.768;2022-09-09T07:01:26;15.66;86.60
69543;SHT31;56762;49.494;11.768;2022-09-09T07:03:56;15.70;86.49
69543;SHT31;56762;49.494;11.768;2022-09-09T07:06:26;15.75;86.46
69543;SHT31;56762;49.494;11.768;2022-09-09T07:08:57;15.89;86.46
69543;SHT31;56762;49.494;11.768;2022-09-09T07:11:26;16.03;86.18
69543;SHT31;56762;49.494;11.768;2022-09-09T07:13:57;16.09;86.27
69543;SHT31;56762;49.494;11.768;2022-09-09T07:16:25;16.10;85.93
69543;SHT31;56762;49.494;11.768;2022-09-09T07:18:54;16.09;85.65
69543;SHT31;56762;49.494;11.768;2022-09-09T07:21:25;16.08;85.60
69543;SHT31;56762;49.494;11.768;2022-09-09T07:23:55;16.05;85.90
69543;SHT31;56762;49.494;11.768;2022-09-09T07:26:25;16.00;85.92
69543;SHT31;56762;49.494;11.768;2022-09-09T07:28:53;15.96;85.94
69543;SHT31;56762;49.494;11.768;2022-09-09T07:31:23;15.95;85.98
69543;SHT31;56762;49.494;11.768;2022-09-09T07:33:51;15.93;86.09
69543;SHT31;56762;49.494;11.768;2022-09-09T07:36:21;15.95;86.00
69543;SHT31;56762;49.494;11.768;2022-09-09T07:38:51;15.98;85.96
69543;SHT31;56762;49.494;11.768;2022-09-09T07:41:23;15.93;86.04
69543;SHT31;56762;49.494;11.768;2022-09-09T07:43:52;15.92;86.10
69543;SHT31;56762;49.494;11.768;2022-09-09T07:46:23;15.96;86.37
69543;SHT31;56762;49.494;11.768;2022-09-09T07:48:53;15.99;86.71
69543;SHT31;56762;49.494;11.768;2022-09-09T07:51:23;16.03;86.55
69543;SHT31;56762;49.494;11.768;2022-09-09T07:53:52;16.08;86.52
69543;SHT31;56762;49.494;11.768;2022-09-09T07:56:22;16.10;86.70
69543;SHT31;56762;49.494;11.768;2022-09-09T07:58:51;16.13;86.45
69543;SHT31;56762;49.494;11.768;2022-09-09T08:01:21;16.13;86.52
69543;SHT31;56762;49.494;11.768;2022-09-09T08:03:54;16.13;86.86
69543;SHT31;56762;49.494;11.768;2022-09-09T08:06:22;16.14;87.32
69543;SHT31;56762;49.494;11.768;2022-09-09T08:08:51;16.13;88.11
69543;SHT31;56762;49.494;11.768;2022-09-09T08:11:19;16.14;88.32
69543;SHT31;56762;49.494;11.768;2022-09-09T08:13:49;16.13;88.19
69543;SHT31;56762;49.494;11.768;2022-09-09T08:16:23;16.16;88.74
69543;SHT31;56762;49.494;11.768;2022-09-09T08:18:52;16.24;88.90
69543;SHT31;56762;49.494;11.768;2022-09-09T08:21:22;16.27;88.75
69543;SHT31;56762;49.494;11.768;2022-09-09T08:23:51;16.37;89.03
69543;SHT31;56762;49.494;11.768;2022-09-09T08:26:26;16.46;88.31
69543;SHT31;56762;49.494;11.768;2022-09-09T08:28:57;16.54;87.95
69543;SHT31;56762;49.494;11.768;2022-09-09T08:31:27;16.57;88.00
69543;SHT31;56762;49.494;11.768;2022-09-09T08:33:56;16.61;88.17
69543;SHT31;56762;49.494;11.768;2022-09-09T08:36:27;16.68;87.86
69543;SHT31;56762;49.494;11.768;2022-09-09T08:38:57;16.72;87.66
69543;SHT31;56762;49.494;11.768;2022-09-09T08:41:36;16.71;88.09
69543;SHT31;56762;49.494;11.768;2022-09-09T08:44:12;16.72;87.80
69543;SHT31;56762;49.494;11.768;2022-09-09T08:46:47;16.75;88.32
69543;SHT31;56762;49.494;11.768;2022-09-09T08:49:35;16.88;88.38
69543;SHT31;56762;49.494;11.768;2022-09-09T08:52:11;16.96;88.15
69543;SHT31;56762;49.494;11.768;2022-09-09T08:54:42;17.04;87.96
69543;SHT31;56762;49.494;11.768;2022-09-09T08:57:20;17.12;87.74
69543;SHT31;56762;49.494;11.768;2022-09-09T08:59:55;17.18;87.68
69543;SHT31;56762;49.494;11.768;2022-09-09T09:02:26;17.22;87.39
69543;SHT31;56762;49.494;11.768;2022-09-09T09:05:06;17.28;85.96
69543;SHT31;56762;49.494;11.768;2022-09-09T09:07:46;17.23;85.84
69543;SHT31;56762;49.494;11.768;2022-09-09T09:10:28;17.23;85.19
69543;SHT31;56762;49.494;11.768;2022-09-09T09:13:15;17.19;85.37
69543;SHT31;56762;49.494;11.768;2022-09-09T09:15:48;17.22;85.12
69543;SHT31;56762;49.494;11.768;2022-09-09T09:18:17;17.30;85.26
69543;SHT31;56762;49.494;11.768;2022-09-09T09:20:50;17.42;85.13
69543;SHT31;56762;49.494;11.768;2022-09-09T09:23:23;17.60;85.14
69543;SHT31;56762;49.494;11.768;2022-09-09T09:25:56;17.74;84.67
69543;SHT31;56762;49.494;11.768;2022-09-09T09:28:27;17.80;83.46
69543;SHT31;56762;49.494;11.768;2022-09-09T09:31:01;17.81;83.53
69543;SHT31;56762;49.494;11.768;2022-09-09T09:33:35;17.81;83.45
69543;SHT31;56762;49.494;11.768;2022-09-09T09:36:04;17.81;82.66
69543;SHT31;56762;49.494;11.768;2022-09-09T09:38:35;17.83;82.62
69543;SHT31;56762;49.494;11.768;2022-09-09T09:41:35;17.83;82.54
69543;SHT31;56762;49.494;11.768;2022-09-09T09:44:04;17.86;82.84
69543;SHT31;56762;49.494;11.768;2022-09-09T09:46:33;17.91;82.03
69543;SHT31;56762;49.494;11.768;2022-09-09T09:49:03;17.94;82.13
69543;SHT31;56762;49.494;11.768;2022-09-09T09:51:32;18.01;82.40
69543;SHT31;56762;49.494;11.768;2022-09-09T09:54:18;18.15;81.58
69543;SHT31;56762;49.494;11.768;2022-09-09T09:56:50;18.21;81.13
69543;SHT31;56762;49.494;11.768;2022-09-09T09:59:31;18.37;81.14
69543;SHT31;56762;49.494;11.768;2022-09-09T10:02:17;18.53;78.89
69543;SHT31;56762;49.494;11.768;2022-09-09T10:04:45;18.66;78.20
69543;SHT31;56762;49.494;11.768;2022-09-09T10:07:18;18.76;77.96
69543;SHT31;56762;49.494;11.768;2022-09-09T10:09:50;18.77;74.86
69543;SHT31;56762;49.494;11.768;2022-09-09T10:12:28;18.82;75.96
69543;SHT31;56762;49.494;11.768;2022-09-09T10:15:02;18.89;75.37
69543;SHT31;56762;49.494;11.768;2022-09-09T10:17:40;19.04;74.70
69543;SHT31;56762;49.494;11.768;2022-09-09T10:20:21;19.21;73.23
69543;SHT31;56762;49.494;11.768;2022-09-09T10:22:51;19.31;72.35
69543;SHT31;56762;49.494;11.768;2022-09-09T10:25:27;19.37;70.80
69543;SHT31;56762;49.494;11.768;2022-09-09T10:28:14;19.38;70.63
69543;SHT31;56762;49.494;11.768;2022-09-09T10:30:52;19.48;69.84
69543;SHT31;56762;49.494;11.768;2022-09-09T10:33:28;19.35;70.85
69543;SHT31;56762;49.494;11.768;2022-09-09T10:36:21;19.27;70.79
69543;SHT31;56762;49.494;11.768;2022-09-09T10:38:54;19.21;70.66
69543;SHT31;56762;49.494;11.768;2022-09-09T10:41:34;19.19;70.96
69543;SHT31;56762;49.494;11.768;2022-09-09T10:44:16;19.23;70.62
69543;SHT31;56762;49.494;11.768;2022-09-09T10:46:53;19.35;69.63
69543;SHT31;56762;49.494;11.768;2022-09-09T10:49:45;19.48;68.76
69543;SHT31;56762;49.494;11.768;2022-09-09T10:52:24;19.55;69.11
69543;SHT31;56762;49.494;11.768;2022-09-09T10:54:59;19.65;69.76
69543;SHT31;56762;49.494;11.768;2022-09-09T10:57:31;19.72;68.09
69543;SHT31;56762;49.494;11.768;2022-09-09T11:00:05;19.79;68.42
69543;SHT31;56762;49.494;11.768;2022-09-09T11:02:35;19.99;64.52
69543;SHT31;56762;49.494;11.768;2022-09-09T11:05:14;19.89;66.01
69543;SHT31;56762;49.494;11.768;2022-09-09T11:07:47;19.86;67.08
69543;SHT31;56762;49.494;11.768;2022-09-09T11:10:22;19.86;66.80
69543;SHT31;56762;49.494;11.768;2022-09-09T11:12:57;19.82;66.65
69543;SHT31;56762;49.494;11.768;2022-09-09T11:15:31;19.98;65.31
69543;SHT31;56762;49.494;11.768;2022-09-09T11:18:04;19.82;66.42
69543;SHT31;56762;49.494;11.768;2022-09-09T11:20:35;19.77;67.19
69543;SHT31;56762;49.494;11.768;2022-09-09T11:23:08;19.79;66.30
69543;SHT31;56762;49.494;11.768;2022-09-09T11:25:40;19.81;66.09
69543;SHT31;56762;49.494;11.768;2022-09-09T11:28:31;19.89;66.29
69543;SHT31;56762;49.494;11.768;2022-09-09T11:31:15;19.92;67.44
69543;SHT31;56762;49.494;11.768;2022-09-09T11:34:25;19.96;67.05
69543;SHT31;56762;49.494;11.768;2022-09-09T11:40:09;20.09;66.78
69543;SHT31;56762;49.494;11.768;2022-09-09T11:42:41;20.02;67.61
69543;SHT31;56762;49.494;11.768;2022-09-09T11:45:11;20.05;67.11
69543;SHT31;56762;49.494;11.768;2022-09-09T11:47:52;19.95;66.60
69543;SHT31;56762;49.494;11.768;2022-09-09T11:50:30;19.85;68.19
69543;SHT31;56762;49.494;11.768;2022-09-09T11:53:20;19.83;66.97
69543;SHT31;56762;49.494;11.768;2022-09-09T11:56:11;19.85;66.25
69543;SHT31;56762;49.494;11.768;2022-09-09T11:58:43;19.83;67.26
69543;SHT31;56762;49.494;11.768;2022-09-09T12:04:21;19.89;66.87
69543;SHT31;56762;49.494;11.768;2022-09-09T12:06:57;19.92;67.06
69543;SHT31;56762;49.494;11.768;2022-09-09T12:09:31;19.91;67.91
69543;SHT31;56762;49.494;11.768;2022-09-09T12:12:22;19.79;68.01
69543;SHT31;56762;49.494;11.768;2022-09-09T12:15:16;19.72;67.64
69543;SHT31;56762;49.494;11.768;2022-09-09T12:17:48;19.68;68.13
69543;SHT31;56762;49.494;11.768;2022-09-09T12:20:20;19.62;68.52
69543;SHT31;56762;49.494;11.768;2022-09-09T12:23:13;19.61;68.09
69543;SHT31;56762;49.494;11.768;2022-09-09T12:25:55;19.62;68.69
69543;SHT31;56762;49.494;11.768;2022-09-09T12:28:39;19.53;68.98
69543;SHT31;56762;49.494;11.768;2022-09-09T12:31:12;19.69;67.33
69543;SHT31;56762;49.494;11.768;2022-09-09T12:33:45;19.88;65.28
69543;SHT31;56762;49.494;11.768;2022-09-09T12:36:17;19.83;66.80
69543;SHT31;56762;49.494;11.768;2022-09-09T12:38:48;19.81;67.84
69543;SHT31;56762;49.494;11.768;2022-09-09T12:41:21;19.88;66.60
69543;SHT31;56762;49.494;11.768;2022-09-09T12:43:51;19.98;66.67
69543;SHT31;56762;49.494;11.768;2022-09-09T12:46:24;20.06;65.54
69543;SHT31;56762;49.494;11.768;2022-09-09T12:48:54;20.06;65.39
69543;SHT31;56762;49.494;11.768;2022-09-09T12:51:26;20.08;64.45
69543;SHT31;56762;49.494;11.768;2022-09-09T12:53:55;20.26;63.47
69543;SHT31;56762;49.494;11.768;2022-09-09T12:56:24;20.16;61.47
69543;SHT31;56762;49.494;11.768;2022-09-09T12:58:56;19.79;59.99
69543;SHT31;56762;49.494;11.768;2022-09-09T13:01:27;19.32;61.67
69543;SHT31;56762;49.494;11.768;2022-09-09T13:03:56;19.03;60.79
69543;SHT31;56762;49.494;11.768;2022-09-09T13:06:25;18.72;60.18
69543;SHT31;56762;49.494;11.768;2022-09-09T13:08:56;18.53;61.10
69543;SHT31;56762;49.494;11.768;2022-09-09T13:11:28;18.34;64.73
69543;SHT31;56762;49.494;11.768;2022-09-09T13:13:59;18.25;65.89
69543;SHT31;56762;49.494;11.768;2022-09-09T13:16:29;18.21;64.16
69543;SHT31;56762;49.494;11.768;2022-09-09T13:19:00;18.18;64.05
69543;SHT31;56762;49.494;11.768;2022-09-09T13:21:33;18.15;62.51
69543;SHT31;56762;49.494;11.768;2022-09-09T13:24:05;18.11;64.51
69543;SHT31;56762;49.494;11.768;2022-09-09T13:26:34;18.10;64.21
69543;SHT31;56762;49.494;11.768;2022-09-09T13:29:16;18.07;65.19
69543;SHT31;56762;49.494;11.768;2022-09-09T13:31:48;18.02;64.68
69543;SHT31;56762;49.494;11.768;2022-09-09T13:34:30;17.98;64.17
69543;SHT31;56762;49.494;11.768;2022-09-09T13:37:01;17.91;65.71
69543;SHT31;56762;49.494;11.768;2022-09-09T13:39:30;17.87;65.69
69543;SHT31;56762;49.494;11.768;2022-09-09T13:41:57;17.81;67.98
69543;SHT31;56762;49.494;11.768;2022-09-09T13:44:29;17.74;66.75
69543;SHT31;56762;49.494;11.768;2022-09-09T13:47:03;17.70;66.10
69543;SHT31;56762;49.494;11.768;2022-09-09T13:49:36;17.63;63.45
69543;SHT31;56762;49.494;11.768;2022-09-09T13:52:08;17.59;62.88
69543;SHT31;56762;49.494;11.768;2022-09-09T13:54:37;17.54;63.86
69543;SHT31;56762;49.494;11.768;2022-09-09T13:57:11;17.35;70.98
69543;SHT31;56762;49.494;11.768;2022-09-09T13:59:42;17.15;73.50
69543;SHT31;56762;49.494;11.768;2022-09-09T14:02:31;16.94;75.91
69543;SHT31;56762;49.494;11.768;2022-09-09T14:04:59;16.63;78.12
69543;SHT31;56762;49.494;11.768;2022-09-09T14:07:27;16.39;79.87
69543;SHT31;56762;49.494;11.768;2022-09-09T14:09:55;16.21;81.77
69543;SHT31;56762;49.494;11.768;2022-09-09T14:12:23;16.08;82.35
69543;SHT31;56762;49.494;11.768;2022-09-09T14:14:53;15.89;81.99
69543;SHT31;56762;49.494;11.768;2022-09-09T14:17:20;15.79;84.23
69543;SHT31;56762;49.494;11.768;2022-09-09T14:19:49;15.73;84.31
69543;SHT31;56762;49.494;11.768;2022-09-09T14:22:17;15.69;82.58
69543;SHT31;56762;49.494;11.768;2022-09-09T14:24:45;15.65;81.04
69543;SHT31;56762;49.494;11.768;2022-09-09T14:27:13;15.59;81.94
69543;SHT31;56762;49.494;11.768;2022-09-09T14:29:41;15.52;84.00
69543;SHT31;56762;49.494;11.768;2022-09-09T14:32:11;15.48;85.94
69543;SHT31;56762;49.494;11.768;2022-09-09T14:34:41;15.44;86.33
69543;SHT31;56762;49.494;11.768;2022-09-09T14:37:09;15.42;87.08
69543;SHT31;56762;49.494;11.768;2022-09-09T14:39:36;15.35;86.41
69543;SHT31;56762;49.494;11.768;2022-09-09T14:42:05;15.32;85.67
69543;SHT31;56762;49.494;11.768;2022-09-09T14:44:33;15.28;87.04
69543;SHT31;56762;49.494;11.768;2022-09-09T14:47:01;15.23;87.31
69543;SHT31;56762;49.494;11.768;2022-09-09T14:49:30;15.21;86.91
69543;SHT31;56762;49.494;11.768;2022-09-09T14:51:58;15.26;86.00
69543;SHT31;56762;49.494;11.768;2022-09-09T14:54:26;15.23;87.42
69543;SHT31;56762;49.494;11.768;2022-09-09T14:56:54;15.28;87.48
69543;SHT31;56762;49.494;11.768;2022-09-09T14:59:23;15.28;87.43
69543;SHT31;56762;49.494;11.768;2022-09-09T15:01:51;15.23;88.78
69543;SHT31;56762;49.494;11.768;2022-09-09T15:04:19;15.31;86.77
69543;SHT31;56762;49.494;11.768;2022-09-09T15:06:48;15.30;87.39
69543;SHT31;56762;49.494;11.768;2022-09-09T15:09:18;15.18;89.28
69543;SHT31;56762;49.494;11.768;2022-09-09T15:11:46;15.21;90.23
69543;SHT31;56762;49.494;11.768;2022-09-09T15:14:14;15.24;90.20
69543;SHT31;56762;49.494;11.768;2022-09-09T15:16:45;15.32;89.01
69543;SHT31;56762;49.494;11.768;2022-09-09T15:19:13;15.41;89.36
69543;SHT31;56762;49.494;11.768;2022-09-09T15:21:41;15.54;89.67
69543;SHT31;56762;49.494;11.768;2022-09-09T15:24:09;15.77;88.30
69543;SHT31;56762;49.494;11.768;2022-09-09T15:26:38;16.02;87.31
69543;SHT31;56762;49.494;11.768;2022-09-09T15:29:06;16.10;88.54
69543;SHT31;56762;49.494;11.768;2022-09-09T15:31:35;16.17;89.85
69543;SHT31;56762;49.494;11.768;2022-09-09T15:34:06;16.24;89.34
69543;SHT31;56762;49.494;11.768;2022-09-09T15:36:35;16.29;89.62
69543;SHT31;56762;49.494;11.768;2022-09-09T15:39:05;16.29;89.83
69543;SHT31;56762;49.494;11.768;2022-09-09T15:41:35;16.29;89.49
69543;SHT31;56762;49.494;11.768;2022-09-09T15:44:03;16.29;89.09
69543;SHT31;56762;49.494;11.768;2022-09-09T15:46:33;16.23;89.52
69543;SHT31;56762;49.494;11.768;2022-09-09T15:49:05;16.29;89.00
69543;SHT31;56762;49.494;11.768;2022-09-09T15:51:36;16.37;89.48
69543;SHT31;56762;49.494;11.768;2022-09-09T15:54:10;16.46;89.67